createdAt,value
2022-12-11T00:01:10.498Z,86.63
2022-12-11T00:03:39.244Z,86.72
2022-12-11T00:06:08.752Z,86.63
2022-12-11T00:08:38.922Z,86.63
2022-12-11T00:11:09.557Z,86.83
2022-12-11T00:13:37.632Z,86.66
2022-12-11T00:16:06.098Z,86.65
2022-12-11T00:18:35.555Z,86.70
2022-12-11T00:21:05.870Z,86.59
2022-12-11T00:23:36.075Z,86.35
2022-12-11T00:26:09.713Z,86.36
2022-12-11T00:28:37.855Z,86.39
2022-12-11T00:31:06.744Z,86.41
2022-12-11T00:33:34.942Z,86.51
2022-12-11T00:36:03.956Z,86.53
2022-12-11T00:38:32.133Z,86.33
2022-12-11T00:41:00.583Z,86.29
2022-12-11T00:43:30.379Z,86.15
2022-12-11T00:45:59.625Z,86.24
2022-12-11T00:48:27.724Z,86.53
2022-12-11T00:50:55.801Z,86.24
2022-12-11T00:53:23.876Z,86.16
2022-12-11T00:55:52.034Z,86.33
2022-12-11T00:58:20.042Z,86.32
2022-12-11T01:00:50.070Z,86.04
2022-12-11T01:03:18.856Z,86.28
2022-12-11T01:05:54.509Z,86.24
2022-12-11T01:08:25.773Z,85.98
2022-12-11T01:11:01.910Z,85.77
2022-12-11T01:13:29.953Z,85.92
2022-12-11T01:15:59.721Z,85.69
2022-12-11T01:18:28.766Z,85.67
2022-12-11T01:20:56.826Z,85.62
2022-12-11T01:23:24.905Z,85.61
2022-12-11T01:25:52.981Z,85.50
2022-12-11T01:28:21.124Z,85.38
2022-12-11T01:30:49.280Z,85.46
2022-12-11T01:33:18.732Z,85.48
2022-12-11T01:35:46.772Z,85.29
2022-12-11T01:38:14.909Z,85.11
2022-12-11T01:40:53.419Z,85.09
2022-12-11T01:43:21.973Z,85.16
2022-12-11T01:45:50.314Z,84.97
2022-12-11T01:48:26.726Z,85.07
2022-12-11T01:50:57.272Z,85.00
2022-12-11T01:53:30.308Z,84.83
2022-12-11T01:56:00.231Z,84.90
2022-12-11T01:58:32.646Z,84.78
2022-12-11T02:01:02.446Z,84.92
2022-12-11T02:03:31.988Z,84.69
2022-12-11T02:06:00.830Z,84.55
2022-12-11T02:08:29.329Z,84.53
2022-12-11T02:11:07.420Z,84.32
2022-12-11T02:13:43.536Z,84.58
2022-12-11T02:16:20.674Z,84.32
2022-12-11T02:18:56.984Z,84.19
2022-12-11T02:21:28.255Z,84.31
2022-12-11T02:24:12.612Z,84.21
2022-12-11T02:27:12.147Z,84.55
2022-12-11T02:29:50.220Z,84.37
2022-12-11T02:32:23.960Z,84.53
2022-12-11T02:34:59.216Z,84.54
2022-12-11T02:37:30.804Z,84.36
2022-12-11T02:39:59.817Z,84.33
2022-12-11T02:42:33.457Z,84.22
2022-12-11T02:45:04.751Z,84.30
2022-12-11T02:47:35.135Z,84.32
2022-12-11T02:50:09.862Z,84.32
2022-12-11T02:52:39.130Z,84.31
2022-12-11T02:55:10.156Z,84.31
2022-12-11T02:57:50.651Z,84.48
2022-12-11T03:00:21.865Z,84.27
2022-12-11T03:02:49.965Z,84.24
2022-12-11T03:05:18.163Z,84.23
2022-12-11T03:07:46.703Z,84.48
2022-12-11T03:10:18.948Z,84.47
2022-12-11T03:12:53.388Z,84.13
2022-12-11T03:15:30.305Z,84.36
2022-12-11T03:18:04.938Z,84.20
2022-12-11T03:20:40.004Z,84.26
2022-12-11T03:23:19.305Z,83.92
2022-12-11T03:25:54.671Z,84.16
2022-12-11T03:28:28.398Z,84.08
2022-12-11T03:30:59.650Z,83.97
2022-12-11T03:33:34.798Z,84.27
2022-12-11T03:36:07.400Z,84.15
2022-12-11T03:38:40.795Z,84.09
2022-12-11T03:41:10.139Z,83.92
2022-12-11T03:43:40.008Z,84.17
2022-12-11T03:46:12.661Z,84.14
2022-12-11T03:48:43.570Z,83.89
2022-12-11T03:51:12.209Z,84.06
2022-12-11T03:53:40.882Z,83.81
2022-12-11T03:56:11.278Z,83.76
2022-12-11T03:58:53.325Z,83.79
2022-12-11T04:01:22.916Z,83.60
2022-12-11T04:03:51.155Z,83.81
2022-12-11T04:06:19.508Z,83.71
2022-12-11T04:08:47.576Z,83.46
2022-12-11T04:11:33.211Z,83.62
2022-12-11T04:14:19.206Z,83.58
2022-12-11T04:16:48.660Z,83.56
2022-12-11T04:19:34.349Z,83.61
2022-12-11T04:22:20.266Z,83.44
2022-12-11T04:24:50.181Z,83.41
2022-12-11T04:27:39.284Z,83.46
2022-12-11T04:30:10.359Z,83.39
2022-12-11T04:32:40.035Z,83.23
2022-12-11T04:35:09.846Z,83.08
2022-12-11T04:37:38.938Z,83.20
2022-12-11T04:40:10.057Z,83.17
2022-12-11T04:42:38.093Z,83.13
2022-12-11T04:45:08.374Z,83.20
2022-12-11T04:47:37.173Z,83.00
2022-12-11T04:50:08.890Z,82.87
2022-12-11T04:52:37.067Z,83.08
2022-12-11T04:55:05.746Z,83.05
2022-12-11T04:57:33.831Z,83.07
2022-12-11T05:00:04.590Z,83.39
2022-12-11T05:02:36.640Z,82.89
2022-12-11T05:05:09.924Z,83.05
2022-12-11T05:07:38.733Z,82.90
2022-12-11T05:10:07.943Z,82.85
2022-12-11T05:12:36.033Z,83.00
2022-12-11T05:15:04.279Z,83.00
2022-12-11T05:17:32.459Z,83.01
2022-12-11T05:20:00.789Z,82.94
2022-12-11T05:22:31.837Z,82.91
2022-12-11T05:25:00.081Z,82.97
2022-12-11T05:27:28.329Z,82.85
2022-12-11T05:29:59.526Z,82.79
2022-12-11T05:32:27.872Z,82.77
2022-12-11T05:34:55.928Z,82.64
2022-12-11T05:37:24.055Z,82.59
2022-12-11T05:39:53.549Z,82.53
2022-12-11T05:42:25.548Z,82.57
2022-12-11T05:44:57.106Z,82.39
2022-12-11T05:47:25.848Z,82.40
2022-12-11T05:49:53.956Z,82.53
2022-12-11T05:52:22.159Z,82.53
2022-12-11T05:54:50.441Z,82.46
2022-12-11T05:57:19.924Z,82.45
2022-12-11T05:59:48.148Z,82.45
2022-12-11T06:02:16.303Z,82.49
2022-12-11T06:04:44.404Z,82.45
2022-12-11T06:07:12.880Z,82.45
2022-12-11T06:09:40.894Z,82.32
2022-12-11T06:12:09.028Z,82.43
2022-12-11T06:14:38.724Z,82.31
2022-12-11T06:17:07.464Z,82.36
2022-12-11T06:19:37.091Z,82.32
2022-12-11T06:22:05.826Z,82.31
2022-12-11T06:24:34.080Z,82.45
2022-12-11T06:27:02.076Z,82.25
2022-12-11T06:29:30.136Z,82.37
2022-12-11T06:31:59.888Z,82.43
2022-12-11T06:34:28.327Z,82.49
2022-12-11T06:36:56.456Z,82.43
2022-12-11T06:39:24.504Z,82.35
2022-12-11T06:41:52.542Z,82.48
2022-12-11T06:44:20.547Z,82.45
2022-12-11T06:46:48.590Z,82.46
2022-12-11T06:49:18.008Z,82.13
2022-12-11T06:51:46.069Z,82.13
2022-12-11T06:54:14.103Z,82.09
2022-12-11T06:56:42.169Z,82.16
2022-12-11T06:59:13.059Z,82.30
2022-12-11T07:01:41.942Z,82.32
2022-12-11T07:04:10.742Z,82.34
2022-12-11T07:06:40.227Z,82.27
2022-12-11T07:09:08.399Z,82.28
2022-12-11T07:11:36.456Z,82.20
2022-12-11T07:14:04.886Z,82.10
2022-12-11T07:16:32.950Z,82.23
2022-12-11T07:19:01.446Z,82.42
2022-12-11T07:21:29.759Z,82.03
2022-12-11T07:24:00.192Z,82.12
2022-12-11T07:26:28.458Z,82.03
2022-12-11T07:28:58.282Z,82.28
2022-12-11T07:31:28.604Z,82.25
2022-12-11T07:33:58.539Z,82.41
2022-12-11T07:36:27.571Z,82.15
2022-12-11T07:38:56.512Z,82.11
2022-12-11T07:41:27.796Z,82.01
2022-12-11T07:43:56.331Z,82.07
2022-12-11T07:46:26.321Z,82.16
2022-12-11T07:48:54.937Z,81.92
2022-12-11T07:51:29.667Z,82.02
2022-12-11T07:53:59.549Z,81.99
2022-12-11T07:56:29.994Z,82.03
2022-12-11T07:59:00.543Z,81.93
2022-12-11T08:01:30.353Z,81.88
2022-12-11T08:03:58.544Z,81.65
2022-12-11T08:06:29.911Z,81.88
2022-12-11T08:08:58.821Z,81.89
2022-12-11T08:11:29.188Z,81.90
2022-12-11T08:13:57.269Z,81.81
2022-12-11T08:16:25.425Z,81.97
2022-12-11T08:18:54.244Z,81.90
2022-12-11T08:21:24.412Z,81.70
2022-12-11T08:23:54.082Z,81.65
2022-12-11T08:26:25.069Z,81.61
2022-12-11T08:28:54.702Z,81.69
2022-12-11T08:31:23.877Z,81.71
2022-12-11T08:33:52.915Z,81.51
2022-12-11T08:36:22.966Z,81.55
2022-12-11T08:38:51.961Z,81.57
2022-12-11T08:41:22.111Z,81.64
2022-12-11T08:43:52.866Z,81.50
2022-12-11T08:46:24.021Z,81.33
2022-12-11T08:48:52.405Z,81.53
2022-12-11T08:51:22.792Z,81.60
2022-12-11T08:53:51.325Z,81.32
2022-12-11T08:56:21.569Z,81.38
2022-12-11T08:58:49.582Z,81.48
2022-12-11T09:01:21.570Z,81.39
2022-12-11T09:03:52.302Z,81.34
2022-12-11T09:06:22.775Z,81.48
2022-12-11T09:08:53.309Z,81.42
2022-12-11T09:11:23.955Z,81.42
2022-12-11T09:13:52.188Z,81.43
2022-12-11T09:16:22.336Z,81.06
2022-12-11T09:18:53.513Z,81.02
2022-12-11T09:21:23.597Z,81.09
2022-12-11T09:23:54.602Z,80.92
2022-12-11T09:26:23.241Z,82.88
2022-12-11T09:28:53.240Z,85.02
2022-12-11T09:31:24.225Z,84.45
2022-12-11T09:33:56.715Z,85.09
2022-12-11T09:36:25.202Z,85.75
2022-12-11T09:38:53.692Z,86.77
2022-12-11T09:41:36.395Z,85.37
2022-12-11T09:44:20.647Z,84.65
2022-12-11T09:46:49.727Z,83.95
2022-12-11T09:49:26.689Z,82.49
2022-12-11T09:52:05.019Z,82.42
2022-12-11T09:54:33.516Z,87.36
2022-12-11T09:57:15.173Z,87.77
2022-12-11T10:00:04.882Z,86.74
2022-12-11T10:02:44.812Z,86.77
2022-12-11T10:05:22.528Z,87.60
2022-12-11T10:07:56.340Z,88.13
2022-12-11T10:10:37.015Z,86.63
2022-12-11T10:13:13.053Z,85.75
2022-12-11T10:15:45.121Z,85.24
2022-12-11T10:18:17.237Z,84.90
2022-12-11T10:20:48.048Z,85.09
2022-12-11T10:23:19.903Z,84.63
2022-12-11T10:25:54.005Z,83.27
2022-12-11T10:28:22.403Z,83.57
2022-12-11T10:30:58.740Z,83.34
2022-12-11T10:33:35.766Z,83.13
2022-12-11T10:36:08.906Z,83.06
2022-12-11T10:38:43.528Z,82.80
2022-12-11T10:41:13.885Z,83.02
2022-12-11T10:43:44.408Z,82.92
2022-12-11T10:46:17.964Z,82.84
2022-12-11T10:48:50.431Z,82.63
2022-12-11T10:51:20.741Z,82.77
2022-12-11T10:53:52.259Z,82.46
2022-12-11T10:56:27.363Z,82.35
2022-12-11T10:58:57.896Z,82.14
2022-12-11T11:01:28.586Z,82.05
2022-12-11T11:04:01.099Z,82.16
2022-12-11T11:06:30.547Z,82.54
2022-12-11T11:09:00.470Z,82.30
2022-12-11T11:11:33.904Z,82.57
2022-12-11T11:14:16.794Z,82.25
2022-12-11T11:16:47.711Z,82.45
2022-12-11T11:19:20.629Z,82.50
2022-12-11T11:21:54.006Z,82.74
2022-12-11T11:24:31.088Z,83.00
2022-12-11T11:27:14.692Z,82.79
2022-12-11T11:29:50.263Z,82.73
2022-12-11T11:32:25.739Z,82.68
2022-12-11T11:34:53.739Z,82.81
2022-12-11T11:37:32.986Z,82.78
2022-12-11T11:40:09.346Z,82.64
2022-12-11T11:42:46.975Z,82.51
2022-12-11T11:45:21.093Z,82.47
2022-12-11T11:47:57.074Z,82.53
2022-12-11T11:50:32.997Z,82.48
2022-12-11T11:53:18.499Z,82.56
2022-12-11T11:55:55.815Z,82.62
2022-12-11T11:58:28.097Z,82.94
2022-12-11T12:00:56.432Z,83.17
2022-12-11T12:03:26.148Z,83.11
2022-12-11T12:05:58.795Z,83.05
2022-12-11T12:08:42.726Z,82.97
2022-12-11T12:11:21.827Z,83.10
2022-12-11T12:14:00.775Z,82.95
2022-12-11T12:16:52.584Z,82.92
2022-12-11T12:19:39.346Z,83.09
2022-12-11T12:22:17.598Z,83.09
2022-12-11T12:24:56.274Z,83.01
2022-12-11T12:27:51.634Z,83.42
2022-12-11T12:30:23.396Z,83.33
2022-12-11T12:33:05.343Z,83.19
2022-12-11T12:35:37.676Z,83.38
2022-12-11T12:38:12.294Z,83.30
2022-12-11T12:40:56.783Z,83.17
2022-12-11T12:43:46.233Z,83.28
2022-12-11T12:46:26.957Z,83.20
2022-12-11T12:48:58.239Z,83.22
2022-12-11T12:51:27.734Z,83.18
2022-12-11T12:53:59.201Z,83.08
2022-12-11T12:56:33.223Z,83.31
2022-12-11T12:59:01.407Z,83.26
2022-12-11T13:01:32.437Z,83.28
2022-12-11T13:04:03.169Z,83.45
2022-12-11T13:06:35.277Z,83.39
2022-12-11T13:09:18.362Z,83.29
2022-12-11T13:11:52.108Z,83.42
2022-12-11T13:14:31.140Z,83.22
2022-12-11T13:17:25.495Z,83.19
2022-12-11T13:20:12.572Z,83.16
2022-12-11T13:22:55.819Z,83.18
2022-12-11T13:25:28.985Z,83.25
2022-12-11T13:28:07.547Z,83.43
2022-12-11T13:30:36.471Z,83.12
2022-12-11T13:33:07.199Z,83.23
2022-12-11T13:35:36.647Z,83.33
2022-12-11T13:38:08.579Z,82.88
2022-12-11T13:40:41.092Z,83.11
2022-12-11T13:43:19.459Z,82.93
2022-12-11T13:45:50.946Z,82.95
2022-12-11T13:48:24.426Z,82.63
2022-12-11T13:50:54.268Z,82.78
2022-12-11T13:53:22.952Z,82.68
2022-12-11T13:55:58.552Z,82.72
2022-12-11T13:58:29.565Z,82.37
2022-12-11T14:01:07.643Z,82.45
2022-12-11T14:03:37.363Z,82.41
2022-12-11T14:06:05.772Z,82.29
2022-12-11T14:08:39.474Z,82.22
2022-12-11T14:11:07.693Z,82.07
2022-12-11T14:13:40.825Z,82.15
2022-12-11T14:16:09.340Z,82.10
2022-12-11T14:18:38.107Z,82.28
2022-12-11T14:21:07.748Z,82.36
2022-12-11T14:23:37.039Z,82.34
2022-12-11T14:26:16.402Z,82.13
2022-12-11T14:28:46.100Z,81.88
2022-12-11T14:31:18.642Z,81.98
2022-12-11T14:33:50.413Z,82.01
2022-12-11T14:36:19.145Z,82.03
2022-12-11T14:38:50.868Z,83.04
2022-12-11T14:41:22.790Z,83.46
2022-12-11T14:43:56.402Z,83.93
2022-12-11T14:46:27.885Z,83.70
2022-12-11T14:49:01.046Z,83.04
2022-12-11T14:51:36.111Z,82.43
2022-12-11T14:54:05.691Z,82.87
2022-12-11T14:56:34.914Z,83.53
2022-12-11T14:59:09.185Z,84.31
2022-12-11T15:01:39.324Z,89.30
2022-12-11T15:04:23.285Z,87.57
2022-12-11T15:06:52.895Z,86.77
2022-12-11T15:09:25.764Z,85.58
2022-12-11T15:11:56.699Z,84.93
2022-12-11T15:14:27.876Z,83.87
2022-12-11T15:16:58.657Z,83.14
2022-12-11T15:19:31.459Z,82.53
2022-12-11T15:22:05.009Z,82.66
2022-12-11T15:24:36.681Z,88.37
2022-12-11T15:27:06.863Z,90.38
2022-12-11T15:29:38.789Z,89.37
2022-12-11T15:32:19.748Z,88.37
2022-12-11T15:34:50.198Z,86.74
2022-12-11T15:37:20.249Z,85.53
2022-12-11T15:39:49.462Z,84.70
2022-12-11T15:42:23.946Z,85.39
2022-12-11T15:44:55.422Z,85.33
2022-12-11T15:47:25.542Z,85.29
2022-12-11T15:49:56.601Z,84.98
2022-12-11T15:52:25.155Z,83.71
2022-12-11T15:54:53.257Z,83.21
2022-12-11T15:57:23.455Z,82.24
2022-12-11T15:59:56.307Z,80.06
2022-12-11T16:02:26.763Z,80.25
2022-12-11T16:04:55.072Z,80.10
2022-12-11T16:07:26.247Z,80.79
2022-12-11T16:09:54.804Z,80.60
2022-12-11T16:12:23.244Z,80.54
2022-12-11T16:14:51.237Z,80.75
2022-12-11T16:17:21.125Z,81.12
2022-12-11T16:19:49.554Z,84.20
2022-12-11T16:22:18.116Z,83.51
2022-12-11T16:24:46.112Z,83.49
2022-12-11T16:27:17.301Z,81.42
2022-12-11T16:29:49.032Z,81.35
2022-12-11T16:32:17.087Z,81.24
2022-12-11T16:34:47.069Z,81.21
2022-12-11T16:37:15.309Z,81.36
2022-12-11T16:39:45.975Z,81.34
2022-12-11T16:42:15.260Z,81.68
2022-12-11T16:44:44.522Z,81.48
2022-12-11T16:47:12.749Z,81.70
2022-12-11T16:49:42.129Z,81.43
2022-12-11T16:52:18.993Z,81.67
2022-12-11T16:54:49.930Z,81.69
2022-12-11T16:57:18.246Z,81.21
2022-12-11T16:59:46.322Z,81.27
2022-12-11T17:02:14.603Z,81.24
2022-12-11T17:04:43.429Z,81.02
2022-12-11T17:07:13.172Z,81.25
2022-12-11T17:09:41.255Z,81.03
2022-12-11T17:12:10.195Z,81.31
2022-12-11T17:14:38.325Z,81.17
2022-12-11T17:17:06.488Z,81.33
2022-12-11T17:19:34.788Z,81.25
2022-12-11T17:22:03.567Z,81.12
2022-12-11T17:24:33.639Z,81.21
2022-12-11T17:27:01.663Z,80.93
2022-12-11T17:29:30.662Z,81.04
2022-12-11T17:31:58.858Z,81.49
2022-12-11T17:34:26.946Z,82.26
2022-12-11T17:36:55.034Z,82.02
2022-12-11T17:39:23.817Z,81.31
2022-12-11T17:41:53.740Z,81.37
2022-12-11T17:44:21.890Z,81.28
2022-12-11T17:46:50.288Z,81.28
2022-12-11T17:49:18.472Z,81.19
2022-12-11T17:51:55.696Z,81.21
2022-12-11T17:54:24.673Z,81.30
2022-12-11T17:56:54.106Z,81.22
2022-12-11T17:59:22.552Z,81.24
2022-12-11T18:01:50.893Z,81.43
2022-12-11T18:04:19.027Z,81.43
2022-12-11T18:06:47.172Z,81.62
2022-12-11T18:09:15.271Z,81.67
2022-12-11T18:11:43.453Z,81.50
2022-12-11T18:14:17.209Z,81.53
2022-12-11T18:16:45.714Z,81.72
2022-12-11T18:19:13.860Z,81.44
2022-12-11T18:21:43.794Z,81.77
2022-12-11T18:24:12.931Z,81.51
2022-12-11T18:26:42.808Z,81.60
2022-12-11T18:29:12.637Z,81.75
2022-12-11T18:31:42.881Z,81.72
2022-12-11T18:34:12.106Z,81.87
2022-12-11T18:36:41.442Z,81.85
2022-12-11T18:39:09.557Z,81.99
2022-12-11T18:41:37.716Z,81.90
2022-12-11T18:44:10.023Z,81.78
2022-12-11T18:46:40.004Z,81.57
2022-12-11T18:49:08.616Z,81.41
2022-12-11T18:51:37.338Z,81.33
2022-12-11T18:54:05.558Z,81.32
2022-12-11T18:56:33.864Z,81.54
2022-12-11T18:59:02.339Z,82.25
2022-12-11T19:01:33.059Z,81.85
2022-12-11T19:04:06.664Z,82.78
2022-12-11T19:06:38.583Z,83.06
2022-12-11T19:09:08.905Z,82.33
2022-12-11T19:11:39.642Z,82.40
2022-12-11T19:14:08.578Z,82.51
2022-12-11T19:16:38.426Z,82.07
2022-12-11T19:19:10.845Z,83.40
2022-12-11T19:21:40.068Z,85.10
2022-12-11T19:24:10.439Z,85.11
2022-12-11T19:26:38.724Z,86.06
2022-12-11T19:29:07.819Z,86.20
2022-12-11T19:31:36.297Z,86.60
2022-12-11T19:34:04.607Z,86.96
2022-12-11T19:36:35.079Z,85.68
2022-12-11T19:39:07.076Z,84.85
2022-12-11T19:41:38.138Z,84.67
2022-12-11T19:44:06.734Z,84.84
2022-12-11T19:46:35.059Z,84.69
2022-12-11T19:49:03.512Z,84.51
2022-12-11T19:51:36.486Z,84.41
2022-12-11T19:54:05.184Z,84.17
2022-12-11T19:56:36.618Z,83.96
2022-12-11T19:59:06.140Z,84.30
2022-12-11T20:01:37.010Z,84.17
2022-12-11T20:04:07.950Z,83.93
2022-12-11T20:06:39.278Z,83.58
2022-12-11T20:09:10.924Z,83.40
2022-12-11T20:11:41.008Z,83.33
2022-12-11T20:14:09.331Z,83.77
2022-12-11T20:19:26.724Z,83.73
2022-12-11T20:21:56.944Z,84.55
2022-12-11T20:24:25.098Z,85.62
2022-12-11T20:26:54.287Z,85.88
2022-12-11T20:29:22.359Z,85.69
2022-12-11T20:31:51.225Z,87.78
2022-12-11T20:34:19.992Z,93.93
2022-12-11T20:36:48.946Z,91.10
2022-12-11T20:39:18.574Z,90.20
2022-12-11T20:41:47.179Z,88.82
2022-12-11T20:44:15.828Z,87.52
2022-12-11T20:46:43.969Z,86.37
2022-12-11T20:49:13.189Z,85.90
2022-12-11T20:51:41.944Z,85.45
2022-12-11T20:54:10.119Z,85.11
2022-12-11T20:56:39.947Z,85.07
2022-12-11T20:59:08.832Z,84.86
2022-12-11T21:01:36.864Z,84.82
2022-12-11T21:04:05.084Z,84.46
2022-12-11T21:06:35.498Z,84.11
2022-12-11T21:09:06.032Z,84.05
2022-12-11T21:11:34.322Z,84.00
2022-12-11T21:14:04.788Z,83.74
2022-12-11T21:16:33.882Z,83.56
2022-12-11T21:19:02.769Z,83.42
2022-12-11T21:21:33.325Z,83.61
2022-12-11T21:24:01.385Z,83.38
2022-12-11T21:26:29.529Z,83.19
2022-12-11T21:28:57.780Z,83.39
2022-12-11T21:31:28.968Z,83.12
2022-12-11T21:33:57.183Z,83.14
2022-12-11T21:36:25.540Z,82.97
2022-12-11T21:38:53.849Z,83.04
2022-12-11T21:41:24.638Z,82.96
2022-12-11T21:46:45.075Z,82.51
2022-12-11T21:49:13.209Z,82.57
2022-12-11T21:51:47.148Z,82.41
2022-12-11T21:54:17.487Z,82.49
2022-12-11T21:56:46.244Z,82.24
2022-12-11T21:59:14.986Z,82.25
2022-12-11T22:01:46.641Z,82.09
2022-12-11T22:04:16.159Z,82.01
2022-12-11T22:06:47.303Z,81.99
2022-12-11T22:09:17.837Z,81.88
2022-12-11T22:11:47.472Z,81.83
2022-12-11T22:14:17.583Z,81.72
2022-12-11T22:16:47.419Z,81.31
2022-12-11T22:19:15.700Z,81.21
2022-12-11T22:21:44.169Z,81.53
2022-12-11T22:24:12.324Z,81.34
2022-12-11T22:26:40.896Z,81.30
2022-12-11T22:29:09.250Z,81.46
2022-12-11T22:31:37.222Z,81.30
2022-12-11T22:34:06.709Z,81.18
2022-12-11T22:36:34.819Z,81.10
2022-12-11T22:39:02.975Z,81.08
2022-12-11T22:41:33.222Z,81.03
2022-12-11T22:44:02.235Z,80.89
2022-12-11T22:46:31.439Z,80.87
2022-12-11T22:49:00.142Z,80.86
2022-12-11T22:51:29.532Z,80.61
2022-12-11T22:53:58.545Z,80.77
2022-12-11T22:56:26.638Z,80.78
2022-12-11T22:58:54.801Z,80.79
2022-12-11T23:01:24.700Z,80.79
2022-12-11T23:03:53.630Z,80.84
2022-12-11T23:06:24.751Z,80.63
2022-12-11T23:08:57.773Z,80.52
2022-12-11T23:11:28.885Z,80.48
2022-12-11T23:13:58.066Z,80.55
2022-12-11T23:16:27.398Z,80.46
2022-12-11T23:18:56.110Z,80.61
2022-12-11T23:21:26.372Z,80.61
2022-12-11T23:23:56.715Z,80.51
2022-12-11T23:26:28.693Z,80.57
2022-12-11T23:28:58.184Z,80.36
2022-12-11T23:31:27.400Z,80.48
2022-12-11T23:33:55.902Z,80.31
2022-12-11T23:36:25.348Z,80.24
2022-12-11T23:38:55.945Z,80.30
2022-12-11T23:41:24.683Z,80.27
2022-12-11T23:43:52.775Z,80.33
2022-12-11T23:46:22.520Z,80.46
2022-12-11T23:48:51.828Z,80.15
2022-12-11T23:51:21.614Z,80.26
2022-12-11T23:53:49.983Z,80.36
2022-12-11T23:56:22.234Z,80.39
2022-12-11T23:58:50.983Z,80.04
